Yacine Bennacer

Scout - USM Alger
22 Feb 2028
Tuesday
Process

Personality

Adaptability (16) Ambition (8) Controversy (16) Loyalty (2) Pressure (16) Professionalism (19) Sportsmanship (8) Temperament (15)

Profile

Coaching Style Democratic
License Continental A
Determination 7
Man Management 10
Motivating 8
Discipline 8
Job Satisfaction
94%
Fatigue
0%
Role Scout
Wage 38.2K p/w
Contract 14.03.2028

Performance

Behaviour Good
Training Effectiveness
50%
Player Development
30%
Injury Prevention
55%
Tactical Implementation
55%

Recent Events

Attended a recruitment meeting 7d ago
Contract negotiation started 7d ago
Contract negotiation started 7d ago
Contract negotiation started 7d ago
Contract negotiation started 7d ago
Contract negotiation started 7d ago
Observed a match 7d ago
Contract negotiation started 7d ago

Currently Monitoring

84
Player Club Status Ability Confidence Watched Last Observed Latest Vote
Federico Bisanz Atlanta Active 107 / 127 40% 1 31.12.2027 -
Alan Lescano Argentinos Juniors Active 146 / 131 40% 1 31.12.2027 -
Valentin Atangana Al-Ahli Active 146 / 141 40% 2 28.05.2027 -
Alphadjo Cissé Como Active 125 / 128 40% 2 28.05.2027 -
Florentino Luís Ipswich Town Active 129 / 142 40% 1 27.05.2027 -
Ali Ahmed Norwich City Active 140 / 114 40% 1 27.05.2027 -
Ethan Williams Peterborough United Active 118 / 119 40% 1 26.05.2027 -
Leo Castledine Middlesbrough Active 110 / 128 40% 2 25.05.2027 -
Joel McGregor Swindon Town Active 73 / 110 40% 1 25.05.2027 -
Othmane Maamma Watford Active 114 / 128 40% 1 24.05.2027 -
Tomáš Rigo Stoke City Active 127 / 129 40% 1 24.05.2027 -
Jack McGlynn Stoke City Active 119 / 124 40% 1 23.05.2027 -
Lander Astiazarán Real Sociedad Active 85 / 100 40% 1 22.05.2027 -
David Turnbull Cardiff City Active 108 / 111 40% 1 22.05.2027 -
Joe Gelhardt Hull City Active 127 / 142 40% 1 22.05.2027 -
Mohau Nkota Al-Ettifaq Active 138 / 133 40% 2 18.05.2027 -
Monty Batlhabane Polokwane City Active 96 / 100 40% 1 17.05.2027 -
Araphat Mohammed Berekum Chelsea Active 99 / 114 40% 2 16.05.2027 -
Christ Inao Oulaï Fiorentina Active 138 / 139 40% 1 16.05.2027 -
Thulani Dala Platinum Stars Active 108 / 96 40% 1 15.05.2027 -
Matheus Gonçalves Al-Ahli Active 135 / 121 40% 9 11.05.2027 -
Calum Agius Crewe Alexandra Active 81 / 91 40% 1 11.05.2027 -
Santiago Pierotti Lecce Active 125 / 132 40% 1 11.05.2027 -
Tshepang Moremi Orlando Pirates Active 110 / 115 40% 3 10.05.2027 -
Mandla Erasmus SuperSport United Active 119 / 130 40% 2 10.05.2027 -
Mfundo Vilakazi Kaizer Chiefs Active 115 / 110 40% 1 07.05.2027 -
Crysencio Summerville Al-Hilal Active 140 / 140 40% 5 05.05.2027 -
Mduduzi Shabalala Kaizer Chiefs Active 118 / 111 40% 4 05.05.2027 -
Konta Ismaily Active 96 / 108 40% 1 04.05.2027 -
Dion Lopy Al-Ittihad Active 129 / 141 40% 4 01.05.2027 -
Haitham Asiri Al-Qadisiyah Active 108 / 119 40% 2 01.05.2027 -
Romano Schmid Frosinone Active 125 / 137 40% 1 30.04.2027 -
Andrea Colpani Monza Active 131 / 126 40% 1 28.04.2027 -
Zaydou Youssouf Al-Fateh Active 151 / 140 40% 7 15.04.2027 -
Oswin Appollis Orlando Pirates Active 129 / 122 40% 4 10.04.2027 -
Bonheur Mugisha Al-Hazem Active 90 / 111 40% 2 01.04.2027 -
Eduard Spertsyan Al-Ahli Active 160 / 140 40% 5 01.04.2027 -
Rayyan Enad Al-Fayha Active 110 / 91 40% 1 31.03.2027 -
Ahmed Al-Nakhli Al-Hazem Active 124 / 97 40% 6 27.03.2027 -
Mohammed Abu Al-Shamat Al-Qadisiyah Active 110 / 113 40% 5 24.03.2027 -
Williams Manyama SuperSport United Active 110 / 112 40% 3 24.03.2027 -
Khalid Al-Ghannam Al-Ettifaq Active 104 / 117 40% 2 12.03.2027 -
Marcelo Allende Mamelodi Sundowns Active 126 / 131 40% 2 11.03.2027 -
Saleh Abu Al-Shamat Al-Ahli Active 123 / 130 40% 2 24.02.2027 -
Yacine Adli Al-Shabab Active 140 / 146 40% 6 16.02.2027 -
Kazunari Kita Real Sociedad Active 96 / 101 40% 1 16.02.2027 -
Mohammad Alsalkhadi Damac Active 127 / 119 40% 3 15.02.2027 -
Christopher Bonsu Baah Al-Qadisiyah Active 142 / 140 40% 2 11.02.2027 -
Simphiwe Selepe Orlando Pirates Active 118 / 110 40% 1 09.02.2027 -
Osama Al-Johar Al-Jeel Active 78 / 68 40% 1 09.02.2027 -
Petar Stanić Ludogorets Active 149 / 141 40% 2 05.02.2027 -
Percy Jali Free State Stars Active 86 / 102 40% 1 02.02.2027 -
Jofre Torrents Ajax Active 140 / 132 40% 1 25.01.2027 -
Juan Giménez Celta Active 129 / 130 40% 1 18.01.2027 -
Ronwen Phiri Platinum Stars Active 91 / 101 40% 1 18.01.2027 -
Hamed Al-Ghamdi Al-Ittihad Active 93 / 112 40% 1 29.12.2026 -
Faisal Al-Ghamdi Al-Ittihad Active 124 / 117 40% 2 24.12.2026 -
Ahmed Al-Ghamdi Al-Ittihad Active 99 / 114 40% 1 24.12.2026 -
Bassam Al-Hurayji Al-Taawoun Active 127 / 114 40% 1 24.12.2026 -
Nabil Alioui Al-Nassr Active 114 / 120 40% 4 20.12.2026 -
Suleiman Camara Slovan Bratislava Active 125 / 106 40% 1 19.12.2026 -
Ziyad Al-Johani Al-Ahli Active 107 / 112 40% 1 16.12.2026 -
Reda Khadra Qarabag Active 145 / 121 40% 1 11.12.2026 -
Aiman Yahya Al-Nassr Active 129 / 106 40% 1 02.12.2026 -
Mihai Lixandru Al-Fateh Active 104 / 107 40% 1 02.12.2026 -
Jean Charles Ahoua Al-Faisaly Active 122 / 111 40% 3 01.12.2026 -
Saymon Dibba Active 120 / 122 40% 2 27.11.2026 -
Brahian Palacios Al Wasl Active 126 / 112 40% 2 25.11.2026 -
Turki Al-Ammar Al-Qadisiyah Active 123 / 113 40% 1 21.11.2026 -
Mohammed Al-Qahtani Al-Qadisiyah Active 98 / 112 40% 2 20.11.2026 -
Pedro Malheiro Al Wasl Active 143 / 141 40% 3 17.11.2026 -
Marouan Azarkan Al Nasr Active 107 / 110 40% 1 16.11.2026 -
Dhari Al-Anazi Al-Shabab Active 124 / 99 40% 1 14.11.2026 -
Ibrahim Bayesh Al Dhafra Active 126 / 124 40% 2 12.11.2026 -
Abdulmalik Al-Jaber Al-Nassr Active 124 / 110 40% 1 05.11.2026 -
Ali Majrashi Al-Ahli Active 135 / 133 40% 1 31.10.2026 -
Serginho Al Wasl Active 128 / 122 40% 1 29.10.2026 -
Abdoulaye Kanté Al-Ettifaq Active 97 / 117 40% 1 20.10.2026 -
Sulaiman Hazazi Al-Riyadh Active 101 / 118 40% 1 16.10.2026 -
Aboubacar Doumbia Al-Orobah Active 92 / 104 40% 1 14.10.2026 -
Hugo Al Wasl Active 114 / 125 40% 1 06.10.2026 -
Djihad Bizimana CS Constantine Active 102 / 104 48% 1 10.08.2026 -
Jaime Seoane Al-Faisaly Active 125 / 140 40% 1 01.08.2026 -
Mamadou Coulibaly Al Jazira Active 115 / 118 40% 1 01.08.2026 -